Time,TemperatureF,DewpointF,PressureIn,WindDirection,WindDirectionDegrees,WindSpeedMPH,WindSpeedGustMPH,Humidity,HourlyPrecipIn,Conditions,Clouds,dailyrainin,SoftwareType,DateUTC
2013-06-25 00:01:00,67.9,66.7,29.91,SSE,158,3.0,3.0,96,0.00,,,0.33,Wunderground v.1.15,2013-06-25 04:01:00,
2013-06-25 00:02:00,67.9,66.7,29.91,SSE,158,3.0,3.0,96,0.00,,,0.33,Wunderground v.1.15,2013-06-25 04:02:00,
2013-06-25 00:06:00,67.9,66.7,29.91,SSE,158,2.0,3.0,96,0.00,,,0.33,Wunderground v.1.15,2013-06-25 04:06:00,
2013-06-25 00:07:00,67.9,66.7,29.91,SSE,158,6.0,6.0,96,0.00,,,0.33,Wunderground v.1.15,2013-06-25 04:07:00,
2013-06-25 00:12:00,67.9,66.7,29.91,SSE,158,0.0,1.0,96,0.00,,,0.33,Wunderground v.1.15,2013-06-25 04:12:00,
2013-06-25 00:17:00,67.9,66.7,29.90,SSE,158,0.0,1.0,96,0.00,,,0.33,Wunderground v.1.15,2013-06-25 04:17:00,
2013-06-25 00:18:00,67.8,66.6,29.90,SSE,158,0.0,1.0,96,0.00,,,0.33,Wunderground v.1.15,2013-06-25 04:18:00,
2013-06-25 00:23:00,67.8,66.6,29.90,SSE,158,4.0,4.0,96,0.00,,,0.33,Wunderground v.1.15,2013-06-25 04:23:00,
2013-06-25 00:28:00,67.9,66.7,29.90,SSE,158,1.0,4.0,96,0.00,,,0.33,Wunderground v.1.15,2013-06-25 04:28:00,
2013-06-25 00:34:00,67.8,66.6,29.90,SSE,158,0.0,1.0,96,0.00,,,0.33,Wunderground v.1.15,2013-06-25 04:34:00,
2013-06-25 00:39:00,67.8,66.6,29.90,SSE,158,0.0,2.0,96,0.00,,,0.33,Wunderground v.1.15,2013-06-25 04:39:00,
2013-06-25 00:44:00,67.8,66.6,29.91,SSE,158,0.0,2.0,96,0.00,,,0.33,Wunderground v.1.15,2013-06-25 04:44:00,
2013-06-25 00:50:00,67.8,66.6,29.91,SSE,158,0.0,0.0,96,0.00,,,0.33,Wunderground v.1.15,2013-06-25 04:50:00,
2013-06-25 00:55:00,67.8,66.6,29.91,SSE,158,0.0,3.0,96,0.00,,,0.33,Wunderground v.1.15,2013-06-25 04:55:00,
2013-06-25 01:01:00,67.8,66.9,29.90,SSE,158,2.0,2.0,97,0.00,,,0.33,Wunderground v.1.15,2013-06-25 05:01:00,
2013-06-25 01:07:00,67.8,66.9,29.90,SSE,159,1.0,3.0,97,0.00,,,0.33,Wunderground v.1.15,2013-06-25 05:07:00,
2013-06-25 01:13:00,67.8,66.9,29.89,SSE,159,5.0,5.0,97,0.00,,,0.33,Wunderground v.1.15,2013-06-25 05:13:00,
2013-06-25 01:18:00,67.9,67.0,29.89,SSE,162,4.0,5.0,97,0.00,,,0.33,Wunderground v.1.15,2013-06-25 05:18:00,
2013-06-25 01:23:00,67.9,67.0,29.89,SSE,163,0.0,2.0,97,0.00,,,0.33,Wunderground v.1.15,2013-06-25 05:23:00,
2013-06-25 01:29:00,68.1,67.2,29.89,SSE,160,2.0,4.0,97,0.00,,,0.33,Wunderground v.1.15,2013-06-25 05:29:00,
2013-06-25 01:34:00,68.1,67.2,29.89,SSE,162,4.0,4.0,97,0.00,,,0.33,Wunderground v.1.15,2013-06-25 05:34:00,
2013-06-25 01:39:00,68.3,67.4,29.89,SSE,159,0.0,6.0,97,0.00,,,0.33,Wunderground v.1.15,2013-06-25 05:39:00,
2013-06-25 01:44:00,68.3,67.1,29.89,South,179,0.0,5.0,96,0.00,,,0.33,Wunderground v.1.15,2013-06-25 05:44:00,
2013-06-25 01:50:00,68.3,67.1,29.89,SSE,167,5.0,5.0,96,0.00,,,0.33,Wunderground v.1.15,2013-06-25 05:50:00,
2013-06-25 01:55:00,68.3,66.8,29.89,South,169,4.0,6.0,95,0.00,,,0.33,Wunderground v.1.15,2013-06-25 05:55:00,
2013-06-25 02:00:00,68.3,66.8,29.88,SSE,167,3.0,5.0,95,0.00,,,0.33,Wunderground v.1.15,2013-06-25 06:00:00,
2013-06-25 02:05:00,68.3,66.8,29.88,SSE,167,5.0,11.0,95,0.00,,,0.33,Wunderground v.1.15,2013-06-25 06:05:00,
2013-06-25 02:10:00,68.3,66.5,29.88,SSE,157,6.0,10.0,94,0.00,,,0.33,Wunderground v.1.15,2013-06-25 06:10:00,
2013-06-25 02:15:00,68.3,66.5,29.88,South,182,2.0,10.0,94,0.00,,,0.33,Wunderground v.1.15,2013-06-25 06:15:00,
2013-06-25 02:20:00,68.3,66.5,29.88,South,174,1.0,4.0,94,0.00,,,0.33,Wunderground v.1.15,2013-06-25 06:20:00,
2013-06-25 02:25:00,68.3,66.5,29.88,South,176,4.0,11.0,94,0.00,,,0.33,Wunderground v.1.15,2013-06-25 06:25:00,
2013-06-25 02:30:00,68.3,66.5,29.88,SSE,159,4.0,5.0,94,0.00,,,0.33,Wunderground v.1.15,2013-06-25 06:30:00,
2013-06-25 02:35:00,68.1,66.3,29.88,SSE,157,4.0,10.0,94,0.00,,,0.33,Wunderground v.1.15,2013-06-25 06:35:00,
2013-06-25 02:40:00,68.1,66.3,29.88,SSE,155,3.0,4.0,94,0.00,,,0.33,Wunderground v.1.15,2013-06-25 06:40:00,
2013-06-25 02:45:00,68.1,66.3,29.87,SSE,156,2.0,6.0,94,0.00,,,0.33,Wunderground v.1.15,2013-06-25 06:45:00,
2013-06-25 02:50:00,67.9,65.8,29.87,SSE,156,0.0,4.0,93,0.00,,,0.33,Wunderground v.1.15,2013-06-25 06:50:00,
2013-06-25 02:55:00,67.9,65.8,29.87,SSE,156,0.0,5.0,93,0.00,,,0.33,Wunderground v.1.15,2013-06-25 06:55:00,
2013-06-25 03:00:00,67.9,65.8,29.88,SSE,159,1.0,5.0,93,0.00,,,0.33,Wunderground v.1.15,2013-06-25 07:00:00,
2013-06-25 03:06:00,67.9,65.8,29.88,SSE,159,2.0,5.0,93,0.00,,,0.33,Wunderground v.1.15,2013-06-25 07:06:00,
2013-06-25 03:11:00,67.9,65.8,29.88,SSE,159,4.0,4.0,93,0.00,,,0.33,Wunderground v.1.15,2013-06-25 07:11:00,
2013-06-25 03:16:00,67.9,65.8,29.88,SSE,159,0.0,6.0,93,0.00,,,0.33,Wunderground v.1.15,2013-06-25 07:16:00,
2013-06-25 03:21:00,67.9,65.8,29.88,SSE,161,1.0,6.0,93,0.00,,,0.33,Wunderground v.1.15,2013-06-25 07:21:00,
2013-06-25 03:26:00,67.9,65.5,29.88,SSE,165,0.0,6.0,92,0.00,,,0.33,Wunderground v.1.15,2013-06-25 07:26:00,
2013-06-25 03:31:00,67.9,65.5,29.88,SSE,165,0.0,3.0,92,0.00,,,0.33,Wunderground v.1.15,2013-06-25 07:31:00,
2013-06-25 03:36:00,67.8,65.4,29.88,SSE,165,2.0,4.0,92,0.00,,,0.33,Wunderground v.1.15,2013-06-25 07:36:00,
2013-06-25 03:41:00,67.8,65.4,29.88,SSE,165,0.0,4.0,92,0.00,,,0.33,Wunderground v.1.15,2013-06-25 07:41:00,
2013-06-25 03:46:00,67.8,65.4,29.88,SSE,165,1.0,4.0,92,0.00,,,0.33,Wunderground v.1.15,2013-06-25 07:46:00,
2013-06-25 03:51:00,67.6,65.2,29.88,SSE,165,0.0,1.0,92,0.00,,,0.33,Wunderground v.1.15,2013-06-25 07:51:00,
2013-06-25 03:56:00,67.6,65.2,29.88,SSE,165,0.0,3.0,92,0.00,,,0.33,Wunderground v.1.15,2013-06-25 07:56:00,
2013-06-25 04:01:00,67.6,65.2,29.87,SSE,165,0.0,2.0,92,0.00,,,0.33,Wunderground v.1.15,2013-06-25 08:01:00,
2013-06-25 04:06:00,67.6,65.2,29.87,SSE,165,0.0,3.0,92,0.00,,,0.33,Wunderground v.1.15,2013-06-25 08:06:00,
2013-06-25 04:11:00,67.6,65.2,29.87,SSE,165,0.0,0.0,92,0.00,,,0.33,Wunderground v.1.15,2013-06-25 08:11:00,
2013-06-25 04:16:00,67.6,65.2,29.87,SSE,165,0.0,4.0,92,0.00,,,0.33,Wunderground v.1.15,2013-06-25 08:16:00,
2013-06-25 04:21:00,67.6,65.2,29.87,SSE,165,1.0,4.0,92,0.00,,,0.33,Wunderground v.1.15,2013-06-25 08:21:00,
2013-06-25 04:26:00,67.6,64.9,29.87,SSE,165,0.0,6.0,91,0.00,,,0.33,Wunderground v.1.15,2013-06-25 08:26:00,
2013-06-25 04:31:00,67.8,65.1,29.87,SSE,162,0.0,5.0,91,0.00,,,0.33,Wunderground v.1.15,2013-06-25 08:31:00,
2013-06-25 04:36:00,67.8,65.1,29.87,SSE,162,0.0,5.0,91,0.00,,,0.33,Wunderground v.1.15,2013-06-25 08:36:00,
2013-06-25 04:41:00,67.8,65.1,29.87,SSE,164,3.0,4.0,91,0.00,,,0.33,Wunderground v.1.15,2013-06-25 08:41:00,
2013-06-25 04:46:00,67.8,64.8,29.87,SSE,164,0.0,6.0,90,0.00,,,0.00,Wunderground v.1.15,2013-06-25 08:46:00,
2013-06-25 04:51:00,67.8,64.8,29.87,SSE,163,3.0,4.0,90,0.00,,,0.00,Wunderground v.1.15,2013-06-25 08:51:00,
2013-06-25 04:56:00,67.8,64.8,29.87,SSE,164,0.0,5.0,90,0.00,,,0.00,Wunderground v.1.15,2013-06-25 08:56:00,
2013-06-25 05:01:00,67.8,64.8,29.87,SSE,165,5.0,6.0,90,0.00,,,0.00,Wunderground v.1.15,2013-06-25 09:01:00,
2013-06-25 05:06:00,67.8,64.8,29.87,SSE,165,3.0,6.0,90,0.00,,,0.00,Wunderground v.1.15,2013-06-25 09:06:00,
2013-06-25 05:11:00,67.8,64.8,29.87,SSE,167,5.0,6.0,90,0.00,,,0.00,Wunderground v.1.15,2013-06-25 09:11:00,
2013-06-25 05:16:00,67.6,64.6,29.87,SSE,166,2.0,6.0,90,0.00,,,0.00,Wunderground v.1.15,2013-06-25 09:16:00,
2013-06-25 05:21:00,67.6,64.6,29.87,South,170,0.0,2.0,90,0.00,,,0.00,Wunderground v.1.15,2013-06-25 09:21:00,
2013-06-25 05:26:00,67.4,64.4,29.87,South,169,2.0,5.0,90,0.00,,,0.00,Wunderground v.1.15,2013-06-25 09:26:00,
2013-06-25 05:31:00,67.4,64.4,29.87,South,169,0.0,4.0,90,0.00,,,0.00,Wunderground v.1.15,2013-06-25 09:31:00,
2013-06-25 05:36:00,67.4,64.4,29.87,SSE,165,0.0,10.0,90,0.00,,,0.00,Wunderground v.1.15,2013-06-25 09:36:00,
2013-06-25 05:41:00,67.6,64.6,29.87,SSE,163,0.0,5.0,90,0.00,,,0.00,Wunderground v.1.15,2013-06-25 09:41:00,
2013-06-25 05:47:00,67.6,64.6,29.87,SSE,163,3.0,5.0,90,0.00,,,0.00,Wunderground v.1.15,2013-06-25 09:47:00,
2013-06-25 05:52:00,67.6,64.6,29.87,SSE,163,2.0,6.0,90,0.00,,,0.00,Wunderground v.1.15,2013-06-25 09:52:00,
2013-06-25 05:57:00,67.8,64.8,29.87,SSE,163,0.0,6.0,90,0.00,,,0.00,Wunderground v.1.15,2013-06-25 09:57:00,
2013-06-25 06:02:00,67.9,64.9,29.87,SSE,163,0.0,4.0,90,0.00,,,0.00,Wunderground v.1.15,2013-06-25 10:02:00,
2013-06-25 06:07:00,67.9,64.5,29.87,SSE,163,4.0,5.0,89,0.00,,,0.00,Wunderground v.1.15,2013-06-25 10:07:00,
2013-06-25 06:12:00,68.1,64.7,29.87,SSE,159,0.0,5.0,89,0.00,,,0.00,Wunderground v.1.15,2013-06-25 10:12:00,
2013-06-25 06:17:00,68.1,64.7,29.87,SSE,160,0.0,5.0,89,0.00,,,0.00,Wunderground v.1.15,2013-06-25 10:17:00,
2013-06-25 06:22:00,68.3,64.6,29.87,South,169,0.0,9.0,88,0.00,,,0.00,Wunderground v.1.15,2013-06-25 10:22:00,
2013-06-25 06:27:00,68.4,64.7,29.87,South,184,2.0,9.0,88,0.00,,,0.00,Wunderground v.1.15,2013-06-25 10:27:00,
2013-06-25 06:32:00,68.6,64.9,29.87,South,183,0.0,7.0,88,0.00,,,0.00,Wunderground v.1.15,2013-06-25 10:32:00,
2013-06-25 06:37:00,68.8,64.8,29.87,South,184,0.0,7.0,87,0.00,,,0.00,Wunderground v.1.15,2013-06-25 10:37:00,
2013-06-25 06:42:00,68.9,64.9,29.86,SSW,192,3.0,12.0,87,0.00,,,0.00,Wunderground v.1.15,2013-06-25 10:42:00,
2013-06-25 06:47:00,68.9,64.5,29.86,South,175,0.0,12.0,86,0.00,,,0.00,Wunderground v.1.15,2013-06-25 10:47:00,
2013-06-25 06:52:00,69.1,64.7,29.86,South,175,3.0,5.0,86,0.00,,,0.00,Wunderground v.1.15,2013-06-25 10:52:00,
2013-06-25 06:57:00,69.1,65.1,29.86,SSE,167,8.0,9.0,87,0.00,,,0.00,Wunderground v.1.15,2013-06-25 10:57:00,
2013-06-25 07:02:00,69.3,64.9,29.86,South,171,4.0,4.0,86,0.00,,,0.00,Wunderground v.1.15,2013-06-25 11:02:00,
2013-06-25 07:07:00,69.3,64.9,29.86,South,169,0.0,6.0,86,0.00,,,0.00,Wunderground v.1.15,2013-06-25 11:07:00,
2013-06-25 07:12:00,69.3,64.9,29.86,South,171,0.0,8.0,86,0.00,,,0.00,Wunderground v.1.15,2013-06-25 11:12:00,
2013-06-25 07:17:00,69.4,65.0,29.86,South,170,4.0,8.0,86,0.00,,,0.00,Wunderground v.1.15,2013-06-25 11:17:00,
2013-06-25 07:22:00,69.6,65.2,29.86,SSE,166,5.0,6.0,86,0.00,,,0.00,Wunderground v.1.15,2013-06-25 11:22:00,
2013-06-25 07:27:00,69.9,65.2,29.86,South,175,6.0,10.0,85,0.00,,,0.00,Wunderground v.1.15,2013-06-25 11:27:00,
2013-06-25 07:32:00,70.3,65.6,29.86,South,171,0.0,6.0,85,0.00,,,0.00,Wunderground v.1.15,2013-06-25 11:32:00,
2013-06-25 07:37:00,70.4,65.3,29.86,South,182,3.0,11.0,84,0.00,,,0.00,Wunderground v.1.15,2013-06-25 11:37:00,
2013-06-25 07:42:00,70.8,65.7,29.86,South,178,3.0,5.0,84,0.00,,,0.00,Wunderground v.1.15,2013-06-25 11:42:00,
2013-06-25 07:47:00,70.9,65.5,29.86,South,173,4.0,8.0,83,0.00,,,0.00,Wunderground v.1.15,2013-06-25 11:47:00,
2013-06-25 07:52:00,71.1,65.3,29.86,South,186,1.0,8.0,82,0.00,,,0.00,Wunderground v.1.15,2013-06-25 11:52:00,
2013-06-25 07:57:00,71.5,65.7,29.85,SSE,166,0.0,9.0,82,0.00,,,0.00,Wunderground v.1.15,2013-06-25 11:57:00,
2013-06-25 08:02:00,71.8,65.7,29.85,SSE,160,0.0,7.0,81,0.00,,,0.00,Wunderground v.1.15,2013-06-25 12:02:00,
2013-06-25 08:07:00,72.1,65.6,29.85,South,170,0.0,10.0,80,0.00,,,0.00,Wunderground v.1.15,2013-06-25 12:07:00,
2013-06-25 08:12:00,72.3,66.1,29.85,SSE,162,1.0,4.0,81,0.00,,,0.00,Wunderground v.1.15,2013-06-25 12:12:00,
2013-06-25 08:17:00,72.5,66.0,29.85,South,174,2.0,10.0,80,0.00,,,0.00,Wunderground v.1.15,2013-06-25 12:17:00,
2013-06-25 08:22:00,72.7,66.2,29.85,South,180,7.0,9.0,80,0.00,,,0.00,Wunderground v.1.15,2013-06-25 12:22:00,
2013-06-25 08:27:00,72.8,65.9,29.84,South,171,1.0,10.0,79,0.00,,,0.00,Wunderground v.1.15,2013-06-25 12:27:00,
2013-06-25 08:32:00,73.2,65.2,29.84,SE,146,1.0,10.0,76,0.00,,,0.00,Wunderground v.1.15,2013-06-25 12:32:00,
2013-06-25 08:37:00,73.3,66.4,29.84,SSW,194,1.0,10.0,79,0.00,,,0.00,Wunderground v.1.15,2013-06-25 12:37:00,
2013-06-25 08:42:00,73.7,66.8,29.84,SSE,163,0.0,9.0,79,0.00,,,0.00,Wunderground v.1.15,2013-06-25 12:42:00,
2013-06-25 08:47:00,73.9,66.6,29.84,SSE,167,0.0,9.0,78,0.00,,,0.00,Wunderground v.1.15,2013-06-25 12:47:00,
2013-06-25 08:52:00,74.2,66.5,29.84,South,169,0.0,7.0,77,0.00,,,0.00,Wunderground v.1.15,2013-06-25 12:52:00,
2013-06-25 08:57:00,74.4,66.7,29.84,South,169,3.0,10.0,77,0.00,,,0.00,Wunderground v.1.15,2013-06-25 12:57:00,
2013-06-25 09:02:00,74.4,66.3,29.84,SSW,194,7.0,10.0,76,0.00,,,0.00,Wunderground v.1.15,2013-06-25 13:02:00,
2013-06-25 09:07:00,74.6,66.9,29.84,South,172,5.0,10.0,77,0.00,,,0.00,Wunderground v.1.15,2013-06-25 13:07:00,
2013-06-25 09:12:00,74.9,67.2,29.84,South,169,5.0,7.0,77,0.00,,,0.00,Wunderground v.1.15,2013-06-25 13:12:00,
2013-06-25 09:18:00,75.1,67.0,29.84,SSW,198,1.0,8.0,76,0.00,,,0.00,Wunderground v.1.15,2013-06-25 13:18:00,
2013-06-25 09:22:00,75.3,66.8,29.84,SSW,198,5.0,10.0,75,0.00,,,0.00,Wunderground v.1.15,2013-06-25 13:22:00,
2013-06-25 09:27:00,75.3,66.8,29.84,SSW,193,4.0,10.0,75,0.00,,,0.00,Wunderground v.1.15,2013-06-25 13:27:00,
2013-06-25 09:32:00,75.6,67.5,29.84,South,181,0.0,7.0,76,0.00,,,0.00,Wunderground v.1.15,2013-06-25 13:32:00,
2013-06-25 09:37:00,76.0,67.1,29.84,South,180,4.0,10.0,74,0.00,,,0.00,Wunderground v.1.15,2013-06-25 13:37:00,
2013-06-25 09:43:00,76.0,67.1,29.84,SW,216,0.0,10.0,74,0.00,,,0.00,Wunderground v.1.15,2013-06-25 13:43:00,
2013-06-25 09:48:00,76.3,67.4,29.84,SSW,194,4.0,10.0,74,0.00,,,0.00,Wunderground v.1.15,2013-06-25 13:48:00,
2013-06-25 09:53:00,76.3,67.4,29.84,SSW,196,0.0,9.0,74,0.00,,,0.00,Wunderground v.1.15,2013-06-25 13:53:00,
2013-06-25 09:58:00,76.8,67.9,29.83,South,190,6.0,9.0,74,0.00,,,0.00,Wunderground v.1.15,2013-06-25 13:58:00,
2013-06-25 10:03:00,76.8,67.1,29.83,SSE,161,2.0,10.0,72,0.00,,,0.00,Wunderground v.1.15,2013-06-25 14:03:00,
2013-06-25 10:08:00,76.8,67.1,29.83,SSE,154,2.0,12.0,72,0.00,,,0.00,Wunderground v.1.15,2013-06-25 14:08:00,
2013-06-25 10:13:00,77.2,67.5,29.83,SE,140,4.0,9.0,72,0.00,,,0.00,Wunderground v.1.15,2013-06-25 14:13:00,
2013-06-25 10:19:00,77.7,68.4,29.83,SSE,152,4.0,9.0,73,0.00,,,0.00,Wunderground v.1.15,2013-06-25 14:19:00,
2013-06-25 10:24:00,77.9,68.1,29.83,South,175,6.0,7.0,72,0.00,,,0.00,Wunderground v.1.15,2013-06-25 14:24:00,
2013-06-25 10:29:00,77.9,67.7,29.83,East,79,6.0,11.0,71,0.00,,,0.00,Wunderground v.1.15,2013-06-25 14:29:00,
2013-06-25 10:34:00,78.5,68.7,29.83,South,176,10.0,11.0,72,0.00,,,0.00,Wunderground v.1.15,2013-06-25 14:34:00,
2013-06-25 10:39:00,78.1,67.9,29.83,SSE,150,5.0,11.0,71,0.00,,,0.00,Wunderground v.1.15,2013-06-25 14:39:00,
2013-06-25 10:44:00,78.6,69.2,29.83,SSW,206,2.0,10.0,73,0.00,,,0.00,Wunderground v.1.15,2013-06-25 14:44:00,
2013-06-25 10:49:00,79.0,69.6,29.83,South,174,4.0,12.0,73,0.00,,,0.00,Wunderground v.1.15,2013-06-25 14:49:00,
2013-06-25 10:54:00,79.0,68.8,29.83,South,189,2.0,9.0,71,0.00,,,0.00,Wunderground v.1.15,2013-06-25 14:54:00,
2013-06-25 10:59:00,79.4,68.8,29.83,SSW,212,3.0,10.0,70,0.00,,,0.00,Wunderground v.1.15,2013-06-25 14:59:00,
2013-06-25 11:04:00,79.6,68.1,29.83,South,188,1.0,8.0,68,0.00,,,0.00,Wunderground v.1.15,2013-06-25 15:04:00,
2013-06-25 11:09:00,79.8,68.7,29.83,SW,224,4.0,11.0,69,0.00,,,0.00,Wunderground v.1.15,2013-06-25 15:09:00,
2013-06-25 11:14:00,80.1,69.4,29.82,SW,222,2.0,5.0,70,0.00,,,0.00,Wunderground v.1.15,2013-06-25 15:14:00,
2013-06-25 11:20:00,80.7,69.6,29.82,SSW,202,0.0,2.0,69,0.00,,,0.00,Wunderground v.1.15,2013-06-25 15:20:00,
2013-06-25 11:25:00,80.7,68.7,29.82,SSE,163,5.0,10.0,67,0.00,,,0.00,Wunderground v.1.15,2013-06-25 15:25:00,
2013-06-25 11:30:00,80.9,69.3,29.82,South,175,4.0,4.0,68,0.00,,,0.00,Wunderground v.1.15,2013-06-25 15:30:00,
2013-06-25 11:35:00,80.5,69.0,29.82,SSE,162,9.0,10.0,68,0.00,,,0.00,Wunderground v.1.15,2013-06-25 15:35:00,
2013-06-25 11:40:00,80.5,69.4,29.82,South,178,2.0,4.0,69,0.00,,,0.00,Wunderground v.1.15,2013-06-25 15:40:00,
2013-06-25 11:45:00,80.7,69.6,29.81,South,170,6.0,11.0,69,0.00,,,0.00,Wunderground v.1.15,2013-06-25 15:45:00,
2013-06-25 11:50:00,80.9,68.9,29.81,SSW,192,3.0,4.0,67,0.00,,,0.00,Wunderground v.1.15,2013-06-25 15:50:00,
2013-06-25 11:55:00,81.4,69.8,29.81,South,179,4.0,10.0,68,0.00,,,0.00,Wunderground v.1.15,2013-06-25 15:55:00,
2013-06-25 12:00:00,81.4,69.4,29.81,South,169,11.0,11.0,67,0.00,,,0.00,Wunderground v.1.15,2013-06-25 16:00:00,
2013-06-25 12:05:00,81.4,70.2,29.81,SSE,159,5.0,13.0,69,0.00,,,0.00,Wunderground v.1.15,2013-06-25 16:05:00,
2013-06-25 12:10:00,82.0,70.0,29.81,SSE,155,9.0,10.0,67,0.00,,,0.00,Wunderground v.1.15,2013-06-25 16:10:00,
2013-06-25 12:15:00,82.2,71.0,29.80,SE,140,11.0,13.0,69,0.00,,,0.00,Wunderground v.1.15,2013-06-25 16:15:00,
2013-06-25 12:20:00,82.6,70.1,29.80,SE,140,5.0,9.0,66,0.00,,,0.00,Wunderground v.1.15,2013-06-25 16:20:00,
2013-06-25 12:25:00,83.2,70.7,29.80,SSW,202,4.0,10.0,66,0.00,,,0.00,Wunderground v.1.15,2013-06-25 16:25:00,
2013-06-25 12:30:00,83.6,71.5,29.78,SE,131,7.0,7.0,67,0.00,,,0.00,Wunderground v.1.15,2013-06-25 16:30:00,
2013-06-25 12:35:00,83.8,70.8,29.78,SSE,160,7.0,10.0,65,0.00,,,0.00,Wunderground v.1.15,2013-06-25 16:35:00,
2013-06-25 12:40:00,84.0,70.5,29.78,SSW,196,8.0,9.0,64,0.00,,,0.00,Wunderground v.1.15,2013-06-25 16:40:00,
2013-06-25 12:45:00,84.0,70.5,29.78,South,184,10.0,14.0,64,0.00,,,0.00,Wunderground v.1.15,2013-06-25 16:45:00,
2013-06-25 12:50:00,83.8,70.3,29.78,South,178,6.0,10.0,64,0.00,,,0.00,Wunderground v.1.15,2013-06-25 16:50:00,
2013-06-25 12:55:00,84.0,70.5,29.78,South,177,5.0,13.0,64,0.00,,,0.00,Wunderground v.1.15,2013-06-25 16:55:00,
2013-06-25 13:00:00,84.3,70.8,29.77,SW,221,6.0,6.0,64,0.00,,,0.00,Wunderground v.1.15,2013-06-25 17:00:00,
2013-06-25 13:05:00,84.3,70.8,29.77,South,188,4.0,9.0,64,0.00,,,0.00,Wunderground v.1.15,2013-06-25 17:05:00,
2013-06-25 13:10:00,84.1,69.2,29.77,SSE,165,10.0,11.0,61,0.00,,,0.00,Wunderground v.1.15,2013-06-25 17:10:00,
2013-06-25 13:15:00,84.0,70.5,29.75,South,185,5.0,15.0,64,0.00,,,0.00,Wunderground v.1.15,2013-06-25 17:15:00,
2013-06-25 13:20:00,84.3,69.9,29.75,SSE,165,1.0,10.0,62,0.00,,,0.00,Wunderground v.1.15,2013-06-25 17:20:00,
2013-06-25 13:26:00,84.5,70.5,29.75,SSW,195,4.0,12.0,63,0.00,,,0.00,Wunderground v.1.15,2013-06-25 17:26:00,
2013-06-25 13:31:00,84.7,70.7,29.75,SSE,148,5.0,8.0,63,0.00,,,0.00,Wunderground v.1.15,2013-06-25 17:31:00,
2013-06-25 13:36:00,84.9,70.9,29.75,SW,216,5.0,14.0,63,0.00,,,0.00,Wunderground v.1.15,2013-06-25 17:36:00,
2013-06-25 13:41:00,84.9,69.9,29.75,SW,216,7.0,15.0,61,0.00,,,0.00,Wunderground v.1.15,2013-06-25 17:41:00,
2013-06-25 13:46:00,84.9,70.4,29.74,South,176,5.0,19.0,62,0.00,,,0.00,Wunderground v.1.15,2013-06-25 17:46:00,
2013-06-25 13:52:00,85.3,70.8,29.74,South,182,5.0,8.0,62,0.00,,,0.00,Wunderground v.1.15,2013-06-25 17:52:00,
2013-06-25 13:57:00,85.5,71.5,29.74,SSW,195,8.0,18.0,63,0.00,,,0.00,Wunderground v.1.15,2013-06-25 17:57:00,
2013-06-25 14:02:00,85.1,70.1,29.73,SE,146,8.0,11.0,61,0.00,,,0.00,Wunderground v.1.15,2013-06-25 18:02:00,
2013-06-25 14:07:00,85.3,70.8,29.73,South,178,6.0,11.0,62,0.00,,,0.00,Wunderground v.1.15,2013-06-25 18:07:00,
2013-06-25 14:12:00,84.3,69.9,29.72,SSW,198,4.0,11.0,62,0.00,,,0.00,Wunderground v.1.15,2013-06-25 18:12:00,
2013-06-25 14:17:00,84.1,70.6,29.72,South,173,5.0,16.0,64,0.00,,,0.00,Wunderground v.1.15,2013-06-25 18:17:00,
2013-06-25 14:22:00,84.0,70.5,29.72,SSE,167,6.0,12.0,64,0.00,,,0.00,Wunderground v.1.15,2013-06-25 18:22:00,
2013-06-25 14:27:00,83.8,70.8,29.73,South,178,1.0,16.0,65,0.00,,,0.00,Wunderground v.1.15,2013-06-25 18:27:00,
2013-06-25 14:32:00,84.1,71.1,29.73,SW,234,7.0,9.0,65,0.00,,,0.00,Wunderground v.1.15,2013-06-25 18:32:00,
2013-06-25 14:37:00,84.5,71.4,29.73,SW,219,10.0,12.0,65,0.00,,,0.00,Wunderground v.1.15,2013-06-25 18:37:00,
2013-06-25 14:42:00,84.5,71.0,29.72,SSW,194,3.0,13.0,64,0.00,,,0.00,Wunderground v.1.15,2013-06-25 18:42:00,
2013-06-25 14:47:00,84.1,71.5,29.72,SSW,202,9.0,17.0,66,0.00,,,0.00,Wunderground v.1.15,2013-06-25 18:47:00,
2013-06-25 14:52:00,83.6,71.5,29.72,South,180,6.0,12.0,67,0.00,,,0.00,Wunderground v.1.15,2013-06-25 18:52:00,
2013-06-25 14:57:00,82.8,70.7,29.71,SSE,159,2.0,16.0,67,0.00,,,0.00,Wunderground v.1.15,2013-06-25 18:57:00,
2013-06-25 15:02:00,82.0,70.4,29.71,South,172,5.0,11.0,68,0.00,,,0.00,Wunderground v.1.15,2013-06-25 19:02:00,
2013-06-25 15:07:00,81.4,70.7,29.71,South,180,3.0,15.0,70,0.00,,,0.00,Wunderground v.1.15,2013-06-25 19:07:00,
2013-06-25 15:12:00,80.7,70.8,29.73,SSW,212,10.0,17.0,72,0.00,,,0.00,Wunderground v.1.15,2013-06-25 19:12:00,
2013-06-25 15:17:00,78.3,70.5,29.73,SW,227,5.0,23.0,77,0.00,,,0.00,Wunderground v.1.15,2013-06-25 19:17:00,
2013-06-25 15:22:00,77.0,70.0,29.73,WNW,294,0.0,10.0,79,0.00,,,0.00,Wunderground v.1.15,2013-06-25 19:22:00,
2013-06-25 15:27:00,76.5,69.5,29.76,NW,313,3.0,10.0,79,0.00,,,0.00,Wunderground v.1.15,2013-06-25 19:27:00,
2013-06-25 15:32:00,76.1,69.1,29.76,North,355,0.0,2.0,79,0.00,,,0.00,Wunderground v.1.15,2013-06-25 19:32:00,
2013-06-25 15:37:00,76.0,69.4,29.76,ENE,63,3.0,7.0,80,0.00,,,0.00,Wunderground v.1.15,2013-06-25 19:37:00,
2013-06-25 15:42:00,75.8,69.2,29.76,East,93,3.0,6.0,80,0.00,,,0.00,Wunderground v.1.15,2013-06-25 19:42:00,
2013-06-25 15:47:00,75.4,68.4,29.76,East,80,3.0,6.0,79,0.00,,,0.00,Wunderground v.1.15,2013-06-25 19:47:00,
2013-06-25 15:52:00,74.9,68.3,29.76,NNE,19,2.0,9.0,80,0.00,,,0.00,Wunderground v.1.15,2013-06-25 19:52:00,
2013-06-25 15:57:00,73.9,68.1,29.77,ENE,62,7.0,9.0,82,0.00,,,0.00,Wunderground v.1.15,2013-06-25 19:57:00,
2013-06-25 16:02:00,73.5,67.7,29.77,ENE,58,0.0,4.0,82,0.00,,,0.00,Wunderground v.1.15,2013-06-25 20:02:00,
2013-06-25 16:07:00,73.3,67.5,29.77,ENE,73,5.0,10.0,82,0.00,,,0.00,Wunderground v.1.15,2013-06-25 20:07:00,
2013-06-25 16:12:00,73.5,67.3,29.76,ENE,78,3.0,9.0,81,0.00,,,0.00,Wunderground v.1.15,2013-06-25 20:12:00,
2013-06-25 16:17:00,73.9,67.3,29.76,East,86,0.0,9.0,80,0.00,,,0.00,Wunderground v.1.15,2013-06-25 20:17:00,
2013-06-25 16:22:00,74.0,67.1,29.76,East,82,4.0,7.0,79,0.00,,,0.00,Wunderground v.1.15,2013-06-25 20:22:00,
2013-06-25 16:27:00,74.2,68.0,29.75,East,97,3.0,7.0,81,0.00,,,0.00,Wunderground v.1.15,2013-06-25 20:27:00,
2013-06-25 16:32:00,74.2,68.3,29.75,East,98,0.0,3.0,82,0.00,,,0.00,Wunderground v.1.15,2013-06-25 20:32:00,
2013-06-25 16:38:00,74.0,68.2,29.75,East,98,0.0,5.0,82,0.00,,,0.01,Wunderground v.1.15,2013-06-25 20:38:00,
2013-06-25 16:43:00,73.5,68.4,29.75,SE,131,2.0,4.0,84,0.00,,,0.01,Wunderground v.1.15,2013-06-25 20:43:00,
2013-06-25 16:48:00,73.3,68.5,29.75,SE,126,0.0,6.0,85,0.00,,,0.01,Wunderground v.1.15,2013-06-25 20:48:00,
2013-06-25 16:53:00,73.9,69.8,29.75,ESE,121,2.0,4.0,87,0.00,,,0.01,Wunderground v.1.15,2013-06-25 20:53:00,
2013-06-25 16:58:00,74.0,69.9,29.74,ESE,121,0.0,4.0,87,0.00,,,0.01,Wunderground v.1.15,2013-06-25 20:58:00,
2013-06-25 17:03:00,74.2,69.4,29.74,ESE,123,2.0,6.0,85,0.00,,,0.01,Wunderground v.1.15,2013-06-25 21:03:00,
2013-06-25 17:08:00,74.4,69.6,29.74,ESE,123,0.0,6.0,85,0.00,,,0.01,Wunderground v.1.15,2013-06-25 21:08:00,
2013-06-25 17:13:00,74.6,69.8,29.75,ESE,123,0.0,1.0,85,0.00,,,0.01,Wunderground v.1.15,2013-06-25 21:13:00,
2013-06-25 17:17:00,74.7,69.9,29.75,ESE,123,0.0,1.0,85,0.00,,,0.01,Wunderground v.1.15,2013-06-25 21:17:00,
2013-06-25 17:22:00,75.1,70.3,29.75,ESE,123,0.0,1.0,85,0.00,,,0.01,Wunderground v.1.15,2013-06-25 21:22:00,
2013-06-25 17:27:00,75.4,71.3,29.75,NNW,338,0.0,6.0,87,0.00,,,0.01,Wunderground v.1.15,2013-06-25 21:27:00,
2013-06-25 17:32:00,74.7,70.6,29.75,NW,321,5.0,9.0,87,0.00,,,0.01,Wunderground v.1.15,2013-06-25 21:32:00,
2013-06-25 17:37:00,73.9,70.1,29.75,NW,326,0.0,9.0,88,0.00,,,0.01,Wunderground v.1.15,2013-06-25 21:37:00,
2013-06-25 17:42:00,73.5,70.1,29.76,NW,326,0.0,2.0,89,0.00,,,0.01,Wunderground v.1.15,2013-06-25 21:42:00,
2013-06-25 17:47:00,73.2,69.8,29.76,NNW,328,1.0,5.0,89,0.00,,,0.01,Wunderground v.1.15,2013-06-25 21:47:00,
2013-06-25 17:52:00,72.7,69.6,29.76,NNW,333,0.0,2.0,90,0.00,,,0.01,Wunderground v.1.15,2013-06-25 21:52:00,
2013-06-25 17:57:00,72.7,69.9,29.77,NNW,333,3.0,3.0,91,0.00,,,0.02,Wunderground v.1.15,2013-06-25 21:57:00,
2013-06-25 18:03:00,72.1,69.3,29.77,NNW,333,0.0,0.0,91,0.00,,,0.02,Wunderground v.1.15,2013-06-25 22:03:00,
2013-06-25 18:09:00,72.0,69.2,29.77,NNW,333,1.0,3.0,91,0.00,,,0.02,Wunderground v.1.15,2013-06-25 22:09:00,
2013-06-25 18:14:00,71.8,69.3,29.76,NNW,336,1.0,4.0,92,0.00,,,0.02,Wunderground v.1.15,2013-06-25 22:14:00,
2013-06-25 18:19:00,71.8,69.3,29.76,NNE,13,0.0,4.0,92,0.00,,,0.03,Wunderground v.1.15,2013-06-25 22:19:00,
2013-06-25 18:25:00,71.8,69.7,29.76,NNE,22,0.0,5.0,93,0.00,,,0.03,Wunderground v.1.15,2013-06-25 22:25:00,
2013-06-25 18:30:00,71.8,69.7,29.75,NNE,22,0.0,1.0,93,0.00,,,0.03,Wunderground v.1.15,2013-06-25 22:30:00,
2013-06-25 18:35:00,71.8,69.7,29.75,NNE,23,0.0,2.0,93,0.00,,,0.03,Wunderground v.1.15,2013-06-25 22:35:00,
2013-06-25 18:40:00,71.8,69.7,29.75,NNE,24,0.0,0.0,93,0.00,,,0.03,Wunderground v.1.15,2013-06-25 22:40:00,
2013-06-25 18:45:00,71.6,69.5,29.75,NNE,26,2.0,4.0,93,0.00,,,0.03,Wunderground v.1.15,2013-06-25 22:45:00,
2013-06-25 18:50:00,71.5,69.7,29.75,NE,34,0.0,4.0,94,0.00,,,0.03,Wunderground v.1.15,2013-06-25 22:50:00,
2013-06-25 18:56:00,71.6,69.8,29.75,NE,34,0.0,4.0,94,0.00,,,0.03,Wunderground v.1.15,2013-06-25 22:56:00,
2013-06-25 19:01:00,71.6,69.8,29.74,NE,34,0.0,0.0,94,0.00,,,0.03,Wunderground v.1.15,2013-06-25 23:01:00,
2013-06-25 19:06:00,71.5,69.4,29.74,NE,34,0.0,2.0,93,0.00,,,0.03,Wunderground v.1.15,2013-06-25 23:06:00,
2013-06-25 19:11:00,71.5,69.4,29.74,NE,34,0.0,0.0,93,0.00,,,0.03,Wunderground v.1.15,2013-06-25 23:11:00,
2013-06-25 19:16:00,71.6,69.8,29.74,NE,34,0.0,0.0,94,0.00,,,0.04,Wunderground v.1.15,2013-06-25 23:16:00,
2013-06-25 19:21:00,71.6,69.5,29.74,NE,34,0.0,0.0,93,0.00,,,0.04,Wunderground v.1.15,2013-06-25 23:21:00,
2013-06-25 19:26:00,71.6,69.5,29.74,NE,34,0.0,1.0,93,0.00,,,0.04,Wunderground v.1.15,2013-06-25 23:26:00,
2013-06-25 19:31:00,71.6,69.8,29.74,NE,34,0.0,0.0,94,0.00,,,0.04,Wunderground v.1.15,2013-06-25 23:31:00,
2013-06-25 19:36:00,71.6,69.8,29.74,NE,34,0.0,0.0,94,0.00,,,0.04,Wunderground v.1.15,2013-06-25 23:36:00,
2013-06-25 19:41:00,71.6,69.8,29.74,NE,34,0.0,0.0,94,0.00,,,0.04,Wunderground v.1.15,2013-06-25 23:41:00,
2013-06-25 19:46:00,71.6,69.8,29.74,NE,34,0.0,3.0,94,0.00,,,0.04,Wunderground v.1.15,2013-06-25 23:46:00,
2013-06-25 19:51:00,71.6,69.8,29.74,NE,34,0.0,0.0,94,0.00,,,0.04,Wunderground v.1.15,2013-06-25 23:51:00,
2013-06-25 19:56:00,71.8,70.3,29.74,NE,34,0.0,0.0,95,0.00,,,0.04,Wunderground v.1.15,2013-06-25 23:56:00,
2013-06-25 20:01:00,71.8,70.0,29.74,NE,34,1.0,1.0,94,0.00,,,0.04,Wunderground v.1.15,2013-06-26 00:01:00,
2013-06-25 20:06:00,72.0,70.5,29.74,NE,34,0.0,1.0,95,0.00,,,0.04,Wunderground v.1.15,2013-06-26 00:06:00,
2013-06-25 20:11:00,71.8,70.0,29.74,NE,34,0.0,3.0,94,0.00,,,0.04,Wunderground v.1.15,2013-06-26 00:11:00,
2013-06-25 20:16:00,71.5,70.0,29.74,NE,34,0.0,3.0,95,0.00,,,0.04,Wunderground v.1.15,2013-06-26 00:16:00,
2013-06-25 20:21:00,71.1,69.6,29.74,NE,34,0.0,1.0,95,0.00,,,0.04,Wunderground v.1.15,2013-06-26 00:21:00,
2013-06-25 20:26:00,70.9,69.4,29.74,NE,34,0.0,1.0,95,0.00,,,0.04,Wunderground v.1.15,2013-06-26 00:26:00,
2013-06-25 20:31:00,70.8,69.3,29.74,NE,34,0.0,0.0,95,0.00,,,0.04,Wunderground v.1.15,2013-06-26 00:31:00,
2013-06-25 20:36:00,70.6,69.4,29.74,NE,34,0.0,1.0,96,0.00,,,0.04,Wunderground v.1.15,2013-06-26 00:36:00,
2013-06-25 20:41:00,70.4,69.2,29.74,NE,34,0.0,0.0,96,0.00,,,0.04,Wunderground v.1.15,2013-06-26 00:41:00,
2013-06-25 20:46:00,70.4,69.2,29.75,NE,34,0.0,0.0,96,0.00,,,0.04,Wunderground v.1.15,2013-06-26 00:46:00,
2013-06-25 20:51:00,70.4,69.2,29.75,NE,34,0.0,0.0,96,0.00,,,0.04,Wunderground v.1.15,2013-06-26 00:51:00,
2013-06-25 20:56:00,70.4,69.2,29.75,NE,34,0.0,0.0,96,0.00,,,0.04,Wunderground v.1.15,2013-06-26 00:56:00,
2013-06-25 21:01:00,70.4,69.2,29.75,NE,34,0.0,0.0,96,0.00,,,0.04,Wunderground v.1.15,2013-06-26 01:01:00,
2013-06-25 21:06:00,70.4,69.2,29.75,NE,34,0.0,0.0,96,0.00,,,0.04,Wunderground v.1.15,2013-06-26 01:06:00,
2013-06-25 21:12:00,70.3,69.1,29.75,NE,34,0.0,0.0,96,0.00,,,0.04,Wunderground v.1.15,2013-06-26 01:12:00,
2013-06-25 21:17:00,70.3,69.1,29.75,NE,34,0.0,0.0,96,0.00,,,0.04,Wunderground v.1.15,2013-06-26 01:17:00,
2013-06-25 21:22:00,70.1,68.9,29.75,NE,34,0.0,0.0,96,0.00,,,0.04,Wunderground v.1.15,2013-06-26 01:22:00,
2013-06-25 21:27:00,70.1,68.9,29.75,NE,34,0.0,1.0,96,0.00,,,0.04,Wunderground v.1.15,2013-06-26 01:27:00,
2013-06-25 21:32:00,69.9,68.7,29.75,NE,34,0.0,0.0,96,0.00,,,0.04,Wunderground v.1.15,2013-06-26 01:32:00,
2013-06-25 21:37:00,69.8,68.6,29.75,NE,34,0.0,0.0,96,0.00,,,0.04,Wunderground v.1.15,2013-06-26 01:37:00,
2013-06-25 21:42:00,69.8,68.9,29.75,NE,34,0.0,0.0,97,0.00,,,0.04,Wunderground v.1.15,2013-06-26 01:42:00,
2013-06-25 21:47:00,69.8,68.9,29.75,NE,34,0.0,1.0,97,0.00,,,0.04,Wunderground v.1.15,2013-06-26 01:47:00,
2013-06-25 21:52:00,69.8,68.9,29.75,NE,34,0.0,0.0,97,0.00,,,0.04,Wunderground v.1.15,2013-06-26 01:52:00,
2013-06-25 21:57:00,69.8,68.9,29.75,NE,34,0.0,1.0,97,0.00,,,0.04,Wunderground v.1.15,2013-06-26 01:57:00,
2013-06-25 22:02:00,69.8,68.9,29.75,NE,34,0.0,0.0,97,0.00,,,0.04,Wunderground v.1.15,2013-06-26 02:02:00,
2013-06-25 22:07:00,69.8,68.9,29.75,NE,34,0.0,2.0,97,0.00,,,0.04,Wunderground v.1.15,2013-06-26 02:07:00,
2013-06-25 22:12:00,69.6,68.7,29.75,NE,34,3.0,3.0,97,0.00,,,0.04,Wunderground v.1.15,2013-06-26 02:12:00,
2013-06-25 22:17:00,69.6,68.7,29.75,NE,34,0.0,3.0,97,0.00,,,0.04,Wunderground v.1.15,2013-06-26 02:17:00,
2013-06-25 22:22:00,69.6,68.7,29.75,NE,34,1.0,2.0,97,0.00,,,0.04,Wunderground v.1.15,2013-06-26 02:22:00,
2013-06-25 22:27:00,69.4,68.5,29.74,NE,41,4.0,4.0,97,0.00,,,0.04,Wunderground v.1.15,2013-06-26 02:27:00,
2013-06-25 22:32:00,69.3,68.4,29.74,East,87,2.0,7.0,97,0.00,,,0.04,Wunderground v.1.15,2013-06-26 02:32:00,
2013-06-25 22:37:00,69.1,68.2,29.74,ESE,107,2.0,7.0,97,0.00,,,0.04,Wunderground v.1.15,2013-06-26 02:37:00,
2013-06-25 22:43:00,68.9,68.3,29.74,ESE,114,0.0,5.0,98,0.00,,,0.04,Wunderground v.1.15,2013-06-26 02:43:00,
2013-06-25 22:48:00,68.9,68.3,29.74,SSE,149,0.0,7.0,98,0.00,,,0.04,Wunderground v.1.15,2013-06-26 02:48:00,
2013-06-25 22:53:00,68.9,68.3,29.74,SSE,149,0.0,4.0,98,0.00,,,0.04,Wunderground v.1.15,2013-06-26 02:53:00,
2013-06-25 22:58:00,68.8,68.2,29.74,SSE,149,2.0,4.0,98,0.00,,,0.04,Wunderground v.1.15,2013-06-26 02:58:00,
2013-06-25 23:03:00,68.8,68.2,29.74,SSE,149,0.0,2.0,98,0.00,,,0.04,Wunderground v.1.15,2013-06-26 03:03:00,
2013-06-25 23:08:00,68.8,68.2,29.74,SSE,149,0.0,3.0,98,0.00,,,0.04,Wunderground v.1.15,2013-06-26 03:08:00,
2013-06-25 23:13:00,68.8,68.2,29.73,SSE,149,0.0,2.0,98,0.00,,,0.04,Wunderground v.1.15,2013-06-26 03:13:00,
2013-06-25 23:18:00,68.8,68.2,29.73,SSE,149,0.0,2.0,98,0.00,,,0.04,Wunderground v.1.15,2013-06-26 03:18:00,
2013-06-25 23:23:00,68.8,68.2,29.73,SSE,149,0.0,3.0,98,0.00,,,0.04,Wunderground v.1.15,2013-06-26 03:23:00,
2013-06-25 23:28:00,68.8,68.2,29.72,SSE,149,0.0,3.0,98,0.00,,,0.04,Wunderground v.1.15,2013-06-26 03:28:00,
2013-06-25 23:33:00,68.8,68.2,29.72,SSE,149,0.0,2.0,98,0.00,,,0.04,Wunderground v.1.15,2013-06-26 03:33:00,
2013-06-25 23:39:00,68.8,68.2,29.72,SSE,149,0.0,2.0,98,0.00,,,0.04,Wunderground v.1.15,2013-06-26 03:39:00,
2013-06-25 23:44:00,68.8,68.2,29.73,SSE,149,0.0,1.0,98,0.00,,,0.04,Wunderground v.1.15,2013-06-26 03:44:00,
2013-06-25 23:49:00,68.8,68.2,29.73,SSE,149,0.0,1.0,98,0.00,,,0.04,Wunderground v.1.15,2013-06-26 03:49:00,
2013-06-25 23:54:00,68.8,68.2,29.73,SSE,149,0.0,0.0,98,0.00,,,0.04,Wunderground v.1.15,2013-06-26 03:54:00,
2013-06-25 23:59:00,68.6,68.0,29.74,SSE,149,0.0,0.0,98,0.00,,,0.04,Wunderground v.1.15,2013-06-26 03:59:00,